Terminal Aerodrome Forecast
Issued by NWS Northern Indiana

Home | Current Version | Previous Version | Text Only | Print | Product List | Glossary On
Versions: 1 2 3 4 5 6 7 8 9 10 11 12 13
660
FTUS43 KIWX 010539
TAFFWA
TAF
KFWA 010539Z 0106/0206 09007KT P6SM FEW150
     FM011400 12008KT P6SM SCT250
     FM011700 17010KT P6SM BKN150
     FM012200 19007KT P6SM VCTS SCT050CB BKN100
     FM020300 23005KT P6SM VCSH BKN050=

USA.gov is the U.S. government's official web portal to all federal, state and local government web resources and services.